createdAt,value
2022-10-17T00:00:24.069Z,17.95
2022-10-17T00:00:55.639Z,16.00
2022-10-17T00:01:27.191Z,16.95
2022-10-17T00:01:58.802Z,18.25
2022-10-17T00:02:30.376Z,17.17
2022-10-17T00:03:02.297Z,17.23
2022-10-17T00:03:35.827Z,17.10
2022-10-17T00:04:07.361Z,17.23
2022-10-17T00:04:38.912Z,15.95
2022-10-17T00:05:12.094Z,16.88
2022-10-17T00:05:46.170Z,17.48
2022-10-17T00:06:17.723Z,16.83
2022-10-17T00:06:49.263Z,17.02
2022-10-17T00:07:20.817Z,20.20
2022-10-17T00:07:53.761Z,16.42
2022-10-17T00:08:25.325Z,17.33
2022-10-17T00:08:56.862Z,16.98
2022-10-17T00:09:28.405Z,17.58
2022-10-17T00:09:59.972Z,16.75
2022-10-17T00:10:31.509Z,17.63
2022-10-17T00:11:07.769Z,15.80
2022-10-17T00:11:39.583Z,17.42
2022-10-17T00:12:11.335Z,18.58
2022-10-17T00:12:42.885Z,16.73
2022-10-17T00:13:14.416Z,17.63
2022-10-17T00:13:48.272Z,18.58
2022-10-17T00:14:19.821Z,16.60
2022-10-17T00:14:51.353Z,19.48
2022-10-17T00:15:23.067Z,15.98
2022-10-17T00:15:54.657Z,15.98
2022-10-17T00:16:32.838Z,15.88
2022-10-17T00:17:04.429Z,15.90
2022-10-17T00:17:36.293Z,17.63
2022-10-17T00:18:07.834Z,17.55
2022-10-17T00:18:39.411Z,18.90
2022-10-17T00:19:10.965Z,18.30
2022-10-17T00:19:42.697Z,17.30
2022-10-17T00:20:14.606Z,16.85
2022-10-17T00:20:46.293Z,16.35
2022-10-17T00:21:19.511Z,18.33
2022-10-17T00:21:51.083Z,17.25
2022-10-17T00:22:22.607Z,16.33
2022-10-17T00:22:54.186Z,16.38
2022-10-17T00:23:27.558Z,16.10
2022-10-17T00:24:00.188Z,16.90
2022-10-17T00:24:31.927Z,17.65
2022-10-17T00:25:03.779Z,16.70
2022-10-17T00:25:35.322Z,17.88
2022-10-17T00:26:06.865Z,17.90
2022-10-17T00:26:38.402Z,18.98
2022-10-17T00:27:09.907Z,18.83
2022-10-17T00:27:42.011Z,18.95
2022-10-17T00:28:15.038Z,16.15
2022-10-17T00:28:50.993Z,15.43
2022-10-17T00:29:22.609Z,17.25
2022-10-17T00:29:54.132Z,18.30
2022-10-17T00:30:25.831Z,18.05
2022-10-17T00:31:03.652Z,15.63
2022-10-17T00:31:35.736Z,16.48
2022-10-17T00:32:07.257Z,17.38
2022-10-17T00:32:39.235Z,18.75
2022-10-17T00:33:10.745Z,17.15
2022-10-17T00:33:43.932Z,17.05
2022-10-17T00:34:15.873Z,17.53
2022-10-17T00:34:47.436Z,17.73
2022-10-17T00:35:18.964Z,15.45
2022-10-17T00:35:50.502Z,16.80
2022-10-17T00:36:24.824Z,15.88
2022-10-17T00:36:57.514Z,17.27
2022-10-17T00:37:31.579Z,15.50
2022-10-17T00:38:03.162Z,17.15
2022-10-17T00:38:35.775Z,17.58
2022-10-17T00:39:07.309Z,17.85
2022-10-17T00:39:39.095Z,16.13
2022-10-17T00:40:10.838Z,17.83
2022-10-17T00:40:42.378Z,16.00
2022-10-17T00:41:17.043Z,17.77
2022-10-17T00:41:48.608Z,15.65
2022-10-17T00:42:20.163Z,15.80
2022-10-17T00:42:53.177Z,17.90
2022-10-17T00:43:24.894Z,17.00
2022-10-17T00:43:56.406Z,17.17
2022-10-17T00:44:30.959Z,18.08
2022-10-17T00:45:27.018Z,16.95
2022-10-17T00:45:58.583Z,16.33
2022-10-17T00:46:38.268Z,18.65
2022-10-17T00:47:17.048Z,17.52
2022-10-17T00:47:56.125Z,17.42
2022-10-17T00:48:27.822Z,18.15
2022-10-17T00:49:06.870Z,16.40
2022-10-17T00:49:38.812Z,16.88
2022-10-17T00:50:11.699Z,17.17
2022-10-17T00:50:46.388Z,16.45
2022-10-17T00:51:22.804Z,17.30
2022-10-17T00:52:03.754Z,15.35
2022-10-17T00:52:35.801Z,17.48
2022-10-17T00:53:09.504Z,17.38
2022-10-17T00:53:41.263Z,15.15
2022-10-17T00:54:16.247Z,17.83
2022-10-17T00:54:53.766Z,15.85
2022-10-17T00:55:30.839Z,16.02
2022-10-17T00:56:02.526Z,16.45
2022-10-17T00:56:34.754Z,16.17
2022-10-17T00:57:07.034Z,15.85
2022-10-17T00:57:39.707Z,15.77
2022-10-17T00:58:11.494Z,16.80
2022-10-17T00:58:43.065Z,14.75
2022-10-17T00:59:16.967Z,14.15
2022-10-17T00:59:52.688Z,16.33
2022-10-17T01:00:24.647Z,17.58
2022-10-17T01:00:56.175Z,16.40
2022-10-17T01:01:27.845Z,15.55
2022-10-17T01:02:19.658Z,17.23
2022-10-17T01:02:51.209Z,16.67
2022-10-17T01:03:23.419Z,17.30
2022-10-17T01:03:55.003Z,17.25
2022-10-17T01:04:26.741Z,16.75
2022-10-17T01:04:59.572Z,16.55
2022-10-17T01:05:31.103Z,16.20
2022-10-17T01:06:02.625Z,18.25
2022-10-17T01:06:34.145Z,17.48
2022-10-17T01:07:05.679Z,17.27
2022-10-17T01:07:39.031Z,16.00
2022-10-17T01:08:12.153Z,18.20
2022-10-17T01:08:43.932Z,16.77
2022-10-17T01:09:15.534Z,16.67
2022-10-17T01:09:47.544Z,16.45
2022-10-17T01:10:20.619Z,18.35
2022-10-17T01:11:01.566Z,17.13
2022-10-17T01:11:52.396Z,15.63
2022-10-17T01:12:41.655Z,17.85
2022-10-17T01:13:50.857Z,16.88
2022-10-17T01:14:47.236Z,17.10
2022-10-17T01:15:59.914Z,14.07
2022-10-17T01:17:14.932Z,13.70
2022-10-17T01:17:55.460Z,18.20
2022-10-17T01:18:51.556Z,15.00
2022-10-17T01:19:32.142Z,16.83
2022-10-17T01:20:25.282Z,16.33
2022-10-17T01:21:18.382Z,16.63
2022-10-17T01:22:00.868Z,18.95
2022-10-17T01:23:07.524Z,18.08
2022-10-17T01:23:50.967Z,15.82
2022-10-17T01:24:53.547Z,17.35
2022-10-17T01:25:49.369Z,17.23
2022-10-17T01:26:26.816Z,15.75
2022-10-17T01:27:19.558Z,16.35
2022-10-17T01:28:14.410Z,15.95
2022-10-17T01:28:48.558Z,17.77
2022-10-17T01:29:57.522Z,15.60
2022-10-17T01:30:47.915Z,18.80
2022-10-17T01:31:23.826Z,17.73
2022-10-17T01:32:01.184Z,15.85
2022-10-17T01:32:44.242Z,19.20
2022-10-17T01:33:21.555Z,18.50
2022-10-17T01:34:12.303Z,15.75
2022-10-17T01:34:59.910Z,17.55
2022-10-17T01:35:54.019Z,19.42
2022-10-17T01:36:37.468Z,16.38
2022-10-17T01:37:36.159Z,19.65
2022-10-17T01:38:16.565Z,17.55
2022-10-17T01:38:53.401Z,17.45
2022-10-17T01:39:29.975Z,18.83
2022-10-17T01:40:10.691Z,16.25
2022-10-17T01:40:53.806Z,17.02
2022-10-17T01:41:49.210Z,20.58
2022-10-17T01:42:43.969Z,16.52
2022-10-17T01:43:40.764Z,16.23
2022-10-17T01:44:29.152Z,16.75
2022-10-17T01:45:35.156Z,17.67
2022-10-17T01:46:26.992Z,15.93
2022-10-17T01:47:05.307Z,17.10
2022-10-17T01:47:38.112Z,16.92
2022-10-17T01:48:16.331Z,17.73
2022-10-17T01:48:47.864Z,16.52
2022-10-17T01:49:24.349Z,17.67
2022-10-17T01:50:00.940Z,18.60
2022-10-17T01:50:36.321Z,18.33
2022-10-17T01:51:27.590Z,18.92
2022-10-17T01:52:08.799Z,17.48
2022-10-17T01:52:45.479Z,17.52
2022-10-17T01:53:24.135Z,16.60
2022-10-17T01:54:02.281Z,15.73
2022-10-17T01:54:40.591Z,16.08
2022-10-17T01:55:20.493Z,17.25
2022-10-17T01:55:55.587Z,16.13
2022-10-17T01:56:29.945Z,16.27
2022-10-17T01:57:05.879Z,16.27
2022-10-17T01:57:42.754Z,16.35
2022-10-17T01:58:20.843Z,18.40
2022-10-17T01:59:00.730Z,15.95
2022-10-17T01:59:42.474Z,17.00
2022-10-17T02:01:07.457Z,14.60
2022-10-17T02:01:41.561Z,15.40
2022-10-17T02:02:16.930Z,16.88
2022-10-17T02:02:51.935Z,16.52
2022-10-17T02:03:25.529Z,15.93
2022-10-17T02:03:59.302Z,17.02
2022-10-17T02:04:31.110Z,16.38
2022-10-17T02:05:04.152Z,17.25
2022-10-17T02:05:39.334Z,18.88
2022-10-17T02:06:10.886Z,16.27
2022-10-17T02:06:42.402Z,17.88
2022-10-17T02:07:14.006Z,18.25
2022-10-17T02:07:45.510Z,16.48
2022-10-17T02:08:28.910Z,20.88
2022-10-17T02:09:00.429Z,19.00
2022-10-17T02:09:31.987Z,18.35
2022-10-17T02:10:15.881Z,18.63
2022-10-17T02:10:50.544Z,16.75
2022-10-17T02:11:24.739Z,15.25
2022-10-17T02:12:08.247Z,15.77
2022-10-17T02:12:50.544Z,17.85
2022-10-17T02:13:37.886Z,16.52
2022-10-17T02:14:31.912Z,20.27
2022-10-17T02:15:44.280Z,18.23
2022-10-17T02:16:40.238Z,18.40
2022-10-17T02:17:33.448Z,15.55
2022-10-17T02:18:20.064Z,16.02
2022-10-17T02:19:03.890Z,15.60
2022-10-17T02:19:54.354Z,16.30
2022-10-17T02:20:35.667Z,15.13
2022-10-17T02:21:11.423Z,16.45
2022-10-17T02:22:01.182Z,18.35
2022-10-17T02:22:43.889Z,15.63
2022-10-17T02:23:27.313Z,15.55
2022-10-17T02:24:32.711Z,16.02
2022-10-17T02:25:22.734Z,15.38
2022-10-17T02:26:12.048Z,17.88
2022-10-17T02:27:05.487Z,16.30
2022-10-17T02:27:39.603Z,15.35
2022-10-17T02:28:23.451Z,15.73
2022-10-17T02:29:04.499Z,16.92
2022-10-17T02:30:11.683Z,15.77
2022-10-17T02:30:53.285Z,16.55
2022-10-17T02:31:40.056Z,15.75
2022-10-17T02:32:25.971Z,17.55
2022-10-17T02:33:16.748Z,17.48
2022-10-17T02:34:02.666Z,15.18
2022-10-17T02:34:40.012Z,15.98
2022-10-17T02:35:14.464Z,15.95
2022-10-17T02:35:51.514Z,17.80
2022-10-17T02:36:29.021Z,15.98
2022-10-17T02:37:03.451Z,15.95
2022-10-17T02:37:36.456Z,17.98
2022-10-17T02:38:10.675Z,15.40
2022-10-17T02:38:44.461Z,15.38
2022-10-17T02:39:16.850Z,18.25
2022-10-17T02:39:50.664Z,15.57
2022-10-17T02:40:24.197Z,15.07
2022-10-17T02:40:56.441Z,17.25
2022-10-17T02:42:05.270Z,15.55
2022-10-17T02:42:37.699Z,16.25
2022-10-17T02:43:09.411Z,16.83
2022-10-17T02:43:45.207Z,16.50
2022-10-17T02:44:17.410Z,14.20
2022-10-17T02:44:49.468Z,16.40
2022-10-17T02:45:24.286Z,16.20
2022-10-17T02:45:56.727Z,16.73
2022-10-17T02:46:29.289Z,17.30
2022-10-17T02:47:23.903Z,15.50
2022-10-17T02:48:14.462Z,16.52
2022-10-17T02:48:51.862Z,14.55
2022-10-17T02:49:31.497Z,18.10
2022-10-17T02:50:04.141Z,15.02
2022-10-17T02:50:57.176Z,17.23
2022-10-17T02:51:56.760Z,17.90
2022-10-17T02:52:36.810Z,17.63
2022-10-17T02:53:22.970Z,19.00
2022-10-17T02:54:06.325Z,16.13
2022-10-17T02:54:43.090Z,15.60
2022-10-17T02:55:19.966Z,18.77
2022-10-17T02:56:00.030Z,16.95
2022-10-17T02:56:36.966Z,16.05
2022-10-17T02:57:31.709Z,16.30
2022-10-17T02:58:09.038Z,17.38
2022-10-17T02:58:43.138Z,17.75
2022-10-17T02:59:17.713Z,15.38
2022-10-17T02:59:51.031Z,18.45
2022-10-17T03:00:24.807Z,15.57
2022-10-17T03:00:56.841Z,17.40
2022-10-17T03:01:30.493Z,18.05
2022-10-17T03:02:06.410Z,17.42
2022-10-17T03:02:49.706Z,16.85
2022-10-17T03:03:23.869Z,18.27
2022-10-17T03:04:13.750Z,16.80
2022-10-17T03:04:46.610Z,16.67
2022-10-17T03:05:21.706Z,17.25
2022-10-17T03:05:54.081Z,20.15
2022-10-17T03:06:25.598Z,17.90
2022-10-17T03:06:57.172Z,17.30
2022-10-17T03:07:28.690Z,16.13
2022-10-17T03:08:00.190Z,17.65
2022-10-17T03:08:31.814Z,20.30
2022-10-17T03:09:04.117Z,17.20
2022-10-17T03:09:35.626Z,18.13
2022-10-17T03:10:07.410Z,17.13
2022-10-17T03:10:38.914Z,15.48
2022-10-17T03:11:10.411Z,16.60
2022-10-17T03:11:42.276Z,15.48
2022-10-17T03:12:13.830Z,17.38
2022-10-17T03:12:45.463Z,21.98
2022-10-17T03:13:17.700Z,17.40
2022-10-17T03:13:49.235Z,17.85
2022-10-17T03:14:20.751Z,16.38
2022-10-17T03:14:52.270Z,17.95
2022-10-17T03:15:23.786Z,17.65
2022-10-17T03:15:56.930Z,17.83
2022-10-17T03:16:28.594Z,18.38
2022-10-17T03:17:00.224Z,17.35
2022-10-17T03:17:31.901Z,18.63
2022-10-17T03:18:03.916Z,16.88
2022-10-17T03:18:35.438Z,19.85
2022-10-17T03:19:07.779Z,19.83
2022-10-17T03:19:39.271Z,18.92
2022-10-17T03:20:11.147Z,17.60
2022-10-17T03:20:42.710Z,18.70
2022-10-17T03:21:14.227Z,19.00
2022-10-17T03:21:45.731Z,19.45
2022-10-17T03:22:17.232Z,19.80
2022-10-17T03:22:48.762Z,18.63
2022-10-17T03:23:20.272Z,16.98
2022-10-17T03:23:51.818Z,17.52
2022-10-17T03:24:23.369Z,18.77
2022-10-17T03:24:54.896Z,18.33
2022-10-17T03:25:26.454Z,22.02
2022-10-17T03:25:57.951Z,21.63
2022-10-17T03:26:29.728Z,22.08
2022-10-17T03:27:01.262Z,17.70
2022-10-17T03:27:33.118Z,21.10
2022-10-17T03:28:05.580Z,20.17
2022-10-17T03:28:37.295Z,18.02
2022-10-17T03:29:08.893Z,19.75
2022-10-17T03:29:40.462Z,19.27
2022-10-17T03:30:12.164Z,19.58
2022-10-17T03:30:43.671Z,21.40
2022-10-17T03:31:17.370Z,20.65
2022-10-17T03:31:48.862Z,21.63
2022-10-17T03:32:20.430Z,21.23
2022-10-17T03:32:51.931Z,19.73
2022-10-17T03:33:23.458Z,21.70
2022-10-17T03:33:55.054Z,19.63
2022-10-17T03:34:28.089Z,21.98
2022-10-17T03:34:59.618Z,23.35
2022-10-17T03:35:31.114Z,20.15
2022-10-17T03:36:10.538Z,20.35
2022-10-17T03:36:42.098Z,21.25
2022-10-17T03:37:13.615Z,20.40
2022-10-17T03:37:45.193Z,19.92
2022-10-17T03:38:16.707Z,18.30
2022-10-17T03:38:48.483Z,17.95
2022-10-17T03:39:20.061Z,19.90
2022-10-17T03:39:51.578Z,18.17
2022-10-17T03:40:23.128Z,17.75
2022-10-17T03:40:56.118Z,17.55
2022-10-17T03:41:27.633Z,18.73
2022-10-17T03:41:59.177Z,17.85
2022-10-17T03:42:31.991Z,15.75
2022-10-17T03:43:03.536Z,17.75
2022-10-17T03:43:35.315Z,17.85
2022-10-17T03:44:06.849Z,17.63
2022-10-17T03:44:38.380Z,17.33
2022-10-17T03:45:10.118Z,16.00
2022-10-17T03:45:41.624Z,18.38
2022-10-17T03:46:13.218Z,17.27
2022-10-17T03:46:44.792Z,17.27
2022-10-17T03:47:16.321Z,17.67
2022-10-17T03:47:47.835Z,16.38
2022-10-17T03:48:19.353Z,17.20
2022-10-17T03:48:50.856Z,18.40
2022-10-17T03:49:22.390Z,18.35
2022-10-17T03:49:54.443Z,20.65
2022-10-17T03:50:26.037Z,20.05
2022-10-17T03:51:02.519Z,17.75
2022-10-17T03:51:35.186Z,18.42
2022-10-17T03:52:06.694Z,18.35
2022-10-17T03:52:38.204Z,17.65
2022-10-17T03:53:09.729Z,18.50
2022-10-17T03:53:41.261Z,18.33
2022-10-17T03:54:12.781Z,17.80
2022-10-17T03:54:44.304Z,17.42
2022-10-17T03:55:16.127Z,18.83
2022-10-17T03:55:47.634Z,19.55
2022-10-17T03:56:24.709Z,17.50
2022-10-17T03:57:28.984Z,17.75
2022-10-17T03:58:00.771Z,18.85
2022-10-17T03:58:32.334Z,19.38
2022-10-17T03:59:04.147Z,17.88
2022-10-17T03:59:35.637Z,15.88
2022-10-17T04:00:07.905Z,18.38
2022-10-17T04:00:39.415Z,16.98
2022-10-17T04:01:13.085Z,18.63
2022-10-17T04:01:44.802Z,16.95
2022-10-17T04:02:16.353Z,19.77
2022-10-17T04:02:47.863Z,16.02
2022-10-17T04:03:19.431Z,17.58
2022-10-17T04:03:52.991Z,18.42
2022-10-17T04:04:24.623Z,18.63
2022-10-17T04:04:56.127Z,15.13
2022-10-17T04:05:27.943Z,15.65
2022-10-17T04:06:01.018Z,16.92
2022-10-17T04:06:32.588Z,14.98
2022-10-17T04:07:04.095Z,19.00
2022-10-17T04:07:37.297Z,16.17
2022-10-17T04:08:09.404Z,18.83
2022-10-17T04:08:42.682Z,14.35
2022-10-17T04:09:14.261Z,17.42
2022-10-17T04:09:45.784Z,18.75
2022-10-17T04:10:17.427Z,17.00
2022-10-17T04:10:48.974Z,17.27
2022-10-17T04:11:21.832Z,18.20
2022-10-17T04:11:53.479Z,19.77
2022-10-17T04:12:25.019Z,17.08
2022-10-17T04:12:56.598Z,18.27
2022-10-17T04:13:28.407Z,19.08
2022-10-17T04:14:00.151Z,19.05
2022-10-17T04:14:31.666Z,19.77
2022-10-17T04:15:03.690Z,17.50
2022-10-17T04:15:35.194Z,20.33
2022-10-17T04:16:12.347Z,18.67
2022-10-17T04:16:43.847Z,17.90
2022-10-17T04:17:15.407Z,17.92
2022-10-17T04:17:48.579Z,18.95
2022-10-17T04:18:20.242Z,18.27
2022-10-17T04:18:56.534Z,16.83
2022-10-17T04:19:28.059Z,21.77
2022-10-17T04:19:59.639Z,19.83
2022-10-17T04:20:31.447Z,19.67
2022-10-17T04:21:04.296Z,17.27
2022-10-17T04:21:35.846Z,16.92
2022-10-17T04:22:08.491Z,18.02
2022-10-17T04:22:40.060Z,17.02
2022-10-17T04:23:11.564Z,17.80
2022-10-17T04:23:43.083Z,20.08
2022-10-17T04:24:14.790Z,17.08
2022-10-17T04:24:46.295Z,16.75
2022-10-17T04:25:17.834Z,17.08
2022-10-17T04:25:49.414Z,17.08
2022-10-17T04:26:21.143Z,16.92
2022-10-17T04:26:52.835Z,17.08
2022-10-17T04:27:24.580Z,16.70
2022-10-17T04:27:56.094Z,19.73
2022-10-17T04:28:28.169Z,18.83
2022-10-17T04:28:59.785Z,19.35
2022-10-17T04:29:31.303Z,19.40
2022-10-17T04:30:02.919Z,18.98
2022-10-17T04:30:34.511Z,19.10
2022-10-17T04:31:08.240Z,19.00
2022-10-17T04:31:39.767Z,20.23
2022-10-17T04:32:11.302Z,20.45
2022-10-17T04:32:42.919Z,19.05
2022-10-17T04:33:14.413Z,22.65
2022-10-17T04:33:50.272Z,19.92
2022-10-17T04:34:21.991Z,19.17
2022-10-17T04:34:53.491Z,20.38
2022-10-17T04:35:25.005Z,19.25
2022-10-17T04:36:04.924Z,19.75
2022-10-17T04:36:36.431Z,19.85
2022-10-17T04:37:07.942Z,18.58
2022-10-17T04:37:39.567Z,17.58
2022-10-17T04:38:11.094Z,18.15
2022-10-17T04:38:42.780Z,16.58
2022-10-17T04:39:50.726Z,15.93
2022-10-17T04:40:22.359Z,18.33
2022-10-17T04:40:53.956Z,16.33
2022-10-17T04:41:26.039Z,18.73
2022-10-17T04:41:57.587Z,16.95
2022-10-17T04:42:29.708Z,18.40
2022-10-17T04:43:01.523Z,19.08
2022-10-17T04:43:34.894Z,17.85
2022-10-17T04:44:06.466Z,23.48
2022-10-17T04:44:38.044Z,17.70
2022-10-17T04:45:10.215Z,18.35
2022-10-17T04:45:41.748Z,18.77
2022-10-17T04:46:14.911Z,18.88
2022-10-17T04:46:46.519Z,19.23
2022-10-17T04:47:18.197Z,18.15
2022-10-17T04:47:49.710Z,20.15
2022-10-17T04:48:21.233Z,19.15
2022-10-17T04:48:53.912Z,17.95
2022-10-17T04:49:25.412Z,21.65
2022-10-17T04:49:56.933Z,20.75
2022-10-17T04:50:28.463Z,17.92
2022-10-17T04:51:06.104Z,18.92
2022-10-17T04:51:38.295Z,19.52
2022-10-17T04:52:09.831Z,20.45
2022-10-17T04:52:41.325Z,19.67
2022-10-17T04:53:12.900Z,19.33
2022-10-17T04:53:45.062Z,21.38
2022-10-17T04:54:16.635Z,20.08
2022-10-17T04:54:48.142Z,18.42
2022-10-17T04:55:19.656Z,21.40
2022-10-17T04:55:51.540Z,20.00
2022-10-17T04:56:24.731Z,32.65
2022-10-17T04:56:56.253Z,35.00
2022-10-17T04:57:27.815Z,25.63
2022-10-17T04:57:59.374Z,22.63
2022-10-17T04:58:30.883Z,23.63
2022-10-17T04:59:02.409Z,26.33
2022-10-17T04:59:33.957Z,23.98
2022-10-17T05:00:06.017Z,29.13
2022-10-17T05:00:37.605Z,26.85
2022-10-17T05:01:14.431Z,30.92
2022-10-17T05:01:46.004Z,23.75
2022-10-17T05:02:17.526Z,25.15
2022-10-17T05:02:49.088Z,24.92
2022-10-17T05:03:20.608Z,27.00
2022-10-17T05:03:52.818Z,25.60
2022-10-17T05:04:25.357Z,25.65
2022-10-17T05:04:56.920Z,27.40
2022-10-17T05:05:28.535Z,23.02
2022-10-17T05:06:04.292Z,22.83
2022-10-17T05:06:37.884Z,26.55
2022-10-17T05:07:09.423Z,55.92
2022-10-17T05:07:41.276Z,65.05
2022-10-17T05:08:13.141Z,58.45
2022-10-17T05:08:45.126Z,50.58
2022-10-17T05:09:16.626Z,43.15
2022-10-17T05:09:48.148Z,37.03
2022-10-17T05:10:19.708Z,35.67
2022-10-17T05:10:51.264Z,32.45
2022-10-17T05:11:25.209Z,36.00
2022-10-17T05:11:56.714Z,29.13
2022-10-17T05:12:28.398Z,27.40
2022-10-17T05:13:00.108Z,27.45
2022-10-17T05:13:32.679Z,27.42
2022-10-17T05:14:04.195Z,24.88
2022-10-17T05:14:35.689Z,23.17
2022-10-17T05:15:08.087Z,27.70
2022-10-17T05:15:40.136Z,32.75
2022-10-17T05:16:11.685Z,23.75
2022-10-17T05:16:43.186Z,20.67
2022-10-17T05:17:14.697Z,21.40
2022-10-17T05:17:46.229Z,25.52
2022-10-17T05:18:17.754Z,29.88
2022-10-17T05:18:53.015Z,31.77
2022-10-17T05:19:24.786Z,29.90
2022-10-17T05:19:56.291Z,24.45
2022-10-17T05:20:28.979Z,23.05
2022-10-17T05:21:00.490Z,18.75
2022-10-17T05:22:04.529Z,19.95
2022-10-17T05:22:38.345Z,21.35
2022-10-17T05:23:12.780Z,25.48
2022-10-17T05:23:44.318Z,40.67
2022-10-17T05:24:16.500Z,42.33
2022-10-17T05:24:48.029Z,29.27
2022-10-17T05:25:20.290Z,21.00
2022-10-17T05:25:55.856Z,19.35
2022-10-17T05:26:27.415Z,19.90
2022-10-17T05:26:59.010Z,20.90
2022-10-17T05:27:30.535Z,25.08
2022-10-17T05:28:02.049Z,30.65
2022-10-17T05:28:34.958Z,27.77
2022-10-17T05:29:06.816Z,34.13
2022-10-17T05:29:39.117Z,34.30
2022-10-17T05:30:10.865Z,33.45
2022-10-17T05:30:42.375Z,38.28
2022-10-17T05:31:14.038Z,34.10
2022-10-17T05:31:45.583Z,31.25
2022-10-17T05:32:17.127Z,32.03
2022-10-17T05:32:51.533Z,31.73
2022-10-17T05:33:23.562Z,30.60
2022-10-17T05:33:55.388Z,31.23
2022-10-17T05:34:27.053Z,30.23
2022-10-17T05:34:58.576Z,30.48
2022-10-17T05:35:30.089Z,31.13
2022-10-17T05:36:01.933Z,29.02
2022-10-17T05:36:33.467Z,29.15
2022-10-17T05:37:04.973Z,31.35
2022-10-17T05:37:36.598Z,32.70
2022-10-17T05:38:08.153Z,33.33
2022-10-17T05:38:39.663Z,33.30
2022-10-17T05:39:14.038Z,31.45
2022-10-17T05:39:50.564Z,32.75
2022-10-17T05:40:23.122Z,31.17
2022-10-17T05:40:59.174Z,30.15
2022-10-17T05:41:30.676Z,26.98
2022-10-17T05:42:02.296Z,29.42
2022-10-17T05:42:34.101Z,34.00
2022-10-17T05:43:05.836Z,28.35
2022-10-17T05:43:37.430Z,27.92
2022-10-17T05:44:08.931Z,27.90
2022-10-17T05:44:41.454Z,28.85
2022-10-17T05:45:13.191Z,30.10
2022-10-17T05:45:44.758Z,29.88
2022-10-17T05:46:16.315Z,32.58
2022-10-17T05:46:50.778Z,28.60
2022-10-17T05:47:22.356Z,27.55
2022-10-17T05:47:53.866Z,28.83
2022-10-17T05:48:25.529Z,32.25
2022-10-17T05:48:57.090Z,26.50
2022-10-17T05:49:40.032Z,32.75
2022-10-17T05:50:16.590Z,25.67
2022-10-17T05:50:48.839Z,25.40
2022-10-17T05:51:20.498Z,25.88
2022-10-17T05:51:52.022Z,26.85
2022-10-17T05:52:23.555Z,25.08
2022-10-17T05:52:55.860Z,26.40
2022-10-17T05:53:31.196Z,27.15
2022-10-17T05:54:06.474Z,26.98
2022-10-17T05:54:38.072Z,30.00
2022-10-17T05:55:10.035Z,25.52
2022-10-17T05:55:41.842Z,25.45
2022-10-17T05:56:14.426Z,24.60
2022-10-17T05:56:45.962Z,28.58
2022-10-17T05:57:17.738Z,27.65
2022-10-17T05:57:50.535Z,25.30
2022-10-17T05:58:32.433Z,24.42
2022-10-17T05:59:10.187Z,27.63
2022-10-17T05:59:41.716Z,28.80
2022-10-17T06:00:14.070Z,29.23
2022-10-17T06:01:18.186Z,29.58
2022-10-17T06:01:49.802Z,28.85
2022-10-17T06:02:21.932Z,28.38
2022-10-17T06:02:53.592Z,30.00
2022-10-17T06:03:25.128Z,26.10
2022-10-17T06:03:56.682Z,26.27
2022-10-17T06:04:28.769Z,25.98
2022-10-17T06:05:00.284Z,24.88
2022-10-17T06:05:31.861Z,28.98
2022-10-17T06:06:08.844Z,25.75
2022-10-17T06:06:40.523Z,28.60
2022-10-17T06:07:12.981Z,27.42
2022-10-17T06:07:44.504Z,29.35
2022-10-17T06:08:16.939Z,28.00
2022-10-17T06:08:48.443Z,27.52
2022-10-17T06:09:20.051Z,26.63
2022-10-17T06:09:51.601Z,27.98
2022-10-17T06:10:23.170Z,27.80
2022-10-17T06:10:54.740Z,27.13
2022-10-17T06:11:26.419Z,27.65
2022-10-17T06:11:57.931Z,31.63
2022-10-17T06:12:29.656Z,28.20
2022-10-17T06:13:01.477Z,28.27
2022-10-17T06:13:33.117Z,26.88
2022-10-17T06:14:04.666Z,26.13
2022-10-17T06:14:36.200Z,26.85
2022-10-17T06:15:08.554Z,29.48
2022-10-17T06:15:40.106Z,24.17
2022-10-17T06:16:11.800Z,28.80
2022-10-17T06:16:43.730Z,29.77
2022-10-17T06:17:16.349Z,28.10
2022-10-17T06:17:48.147Z,30.67
2022-10-17T06:18:19.689Z,29.05
2022-10-17T06:18:51.360Z,29.70
2022-10-17T06:19:22.970Z,28.02
2022-10-17T06:19:54.492Z,31.23
2022-10-17T06:20:26.043Z,28.70
2022-10-17T06:21:25.259Z,25.27
2022-10-17T06:21:56.794Z,24.40
2022-10-17T06:22:28.639Z,23.90
2022-10-17T06:23:00.382Z,26.38
2022-10-17T06:23:32.019Z,23.08
2022-10-17T06:24:03.737Z,25.75
2022-10-17T06:24:35.249Z,22.98
2022-10-17T06:25:07.139Z,28.50
2022-10-17T06:25:38.733Z,24.38
2022-10-17T06:26:10.653Z,20.53
2022-10-17T06:26:42.528Z,24.08
2022-10-17T06:27:14.060Z,23.38
2022-10-17T06:27:45.595Z,24.73
2022-10-17T06:28:17.179Z,24.27
2022-10-17T06:28:48.810Z,25.50
2022-10-17T06:29:20.519Z,21.23
2022-10-17T06:29:52.150Z,24.15
2022-10-17T06:30:23.865Z,22.55
2022-10-17T06:30:55.557Z,24.33
2022-10-17T06:31:27.099Z,20.65
2022-10-17T06:31:58.609Z,21.70
2022-10-17T06:32:30.583Z,21.83
2022-10-17T06:33:02.253Z,22.52
2022-10-17T06:33:34.473Z,22.80
2022-10-17T06:34:05.991Z,19.33
2022-10-17T06:34:37.502Z,21.45
2022-10-17T06:35:09.201Z,21.35
2022-10-17T06:35:40.711Z,19.98
2022-10-17T06:36:13.989Z,19.60
2022-10-17T06:36:45.696Z,20.43
2022-10-17T06:37:17.275Z,20.63
2022-10-17T06:37:48.811Z,19.73
2022-10-17T06:38:20.648Z,20.45
2022-10-17T06:38:52.252Z,21.25
2022-10-17T06:39:26.788Z,21.15
2022-10-17T06:39:58.399Z,19.45
2022-10-17T06:40:30.292Z,21.00
2022-10-17T06:41:13.378Z,19.58
2022-10-17T06:41:45.024Z,21.75
2022-10-17T06:42:16.975Z,16.03
2022-10-17T06:42:48.654Z,22.38
2022-10-17T06:43:25.593Z,17.70
2022-10-17T06:43:59.418Z,19.17
2022-10-17T06:44:31.957Z,20.77
2022-10-17T06:45:03.955Z,18.25
2022-10-17T06:45:35.477Z,20.48
2022-10-17T06:46:07.113Z,19.15
2022-10-17T06:46:39.983Z,19.17
2022-10-17T06:47:13.432Z,18.35
2022-10-17T06:47:46.922Z,20.60
2022-10-17T06:48:18.443Z,21.15
2022-10-17T06:48:50.074Z,21.38
2022-10-17T06:49:21.605Z,20.90
2022-10-17T06:49:53.142Z,21.30
2022-10-17T06:50:24.662Z,19.75
2022-10-17T06:51:00.639Z,18.25
2022-10-17T06:51:35.923Z,18.77
2022-10-17T06:52:07.474Z,17.30
2022-10-17T06:52:39.607Z,18.67
2022-10-17T06:53:11.565Z,16.43
2022-10-17T06:53:43.120Z,17.38
2022-10-17T06:54:14.812Z,20.13
2022-10-17T06:54:46.358Z,17.02
2022-10-17T06:55:21.418Z,17.25
2022-10-17T06:55:55.397Z,17.92
2022-10-17T06:56:27.067Z,15.52
2022-10-17T06:56:58.791Z,16.60
2022-10-17T06:57:30.682Z,16.00
2022-10-17T06:58:02.576Z,16.35
2022-10-17T06:58:39.141Z,18.90
2022-10-17T06:59:11.018Z,17.08
2022-10-17T06:59:42.576Z,16.58
2022-10-17T07:00:14.240Z,18.27
2022-10-17T07:00:45.848Z,16.88
2022-10-17T07:01:17.695Z,17.83
2022-10-17T07:01:49.306Z,16.15
2022-10-17T07:02:21.195Z,16.42
2022-10-17T07:02:52.843Z,17.90
2022-10-17T07:03:24.440Z,14.85
2022-10-17T07:03:55.987Z,14.67
2022-10-17T07:04:27.849Z,17.50
2022-10-17T07:04:59.368Z,17.25
2022-10-17T07:05:30.901Z,15.90
2022-10-17T07:06:03.319Z,15.82
2022-10-17T07:06:34.975Z,15.63
2022-10-17T07:07:06.573Z,17.67
2022-10-17T07:07:40.199Z,16.02
2022-10-17T07:08:14.694Z,14.90
2022-10-17T07:08:46.573Z,17.90
2022-10-17T07:09:18.199Z,14.83
2022-10-17T07:09:51.648Z,16.90
2022-10-17T07:10:23.338Z,15.57
2022-10-17T07:10:55.403Z,15.20
2022-10-17T07:11:26.952Z,16.23
2022-10-17T07:11:59.160Z,15.80
2022-10-17T07:12:30.675Z,15.52
2022-10-17T07:13:02.199Z,15.65
2022-10-17T07:13:38.833Z,14.90
2022-10-17T07:14:10.775Z,16.77
2022-10-17T07:14:42.469Z,14.80
2022-10-17T07:15:13.985Z,16.67
2022-10-17T07:15:46.137Z,19.40
2022-10-17T07:16:17.917Z,15.57
2022-10-17T07:16:49.965Z,14.95
2022-10-17T07:17:21.654Z,14.75
2022-10-17T07:17:53.209Z,15.68
2022-10-17T07:18:24.737Z,14.50
2022-10-17T07:18:56.444Z,16.67
2022-10-17T07:19:28.062Z,14.77
2022-10-17T07:19:59.571Z,17.47
2022-10-17T07:20:31.339Z,16.05
2022-10-17T07:21:04.032Z,17.63
2022-10-17T07:21:38.950Z,18.77
2022-10-17T07:22:11.694Z,19.83
2022-10-17T07:22:43.270Z,16.67
2022-10-17T07:23:14.802Z,14.18
2022-10-17T07:23:46.400Z,16.17
2022-10-17T07:24:18.001Z,17.48
2022-10-17T07:25:26.064Z,17.70
2022-10-17T07:26:02.330Z,16.23
2022-10-17T07:26:34.043Z,15.55
2022-10-17T07:27:05.565Z,18.92
2022-10-17T07:27:37.111Z,16.13
2022-10-17T07:28:08.661Z,14.45
2022-10-17T07:28:42.785Z,14.10